createdAt,value
2019-04-21T00:02:24.223Z,6.80
2019-04-21T00:04:56.922Z,7.17
2019-04-21T00:07:31.618Z,7.27
2019-04-21T00:10:07.663Z,6.50
2019-04-21T00:12:22.095Z,7.10
2019-04-21T00:14:46.052Z,7.53
2019-04-21T00:17:08.149Z,8.33
2019-04-21T00:19:33.979Z,7.63
2019-04-21T00:22:08.583Z,7.23
2019-04-21T00:24:41.453Z,8.17
2019-04-21T00:27:13.848Z,7.67
2019-04-21T00:32:01.798Z,7.50
2019-04-21T00:34:17.484Z,8.13
2019-04-21T00:36:57.086Z,7.10
2019-04-21T00:39:36.456Z,7.23
2019-04-21T00:42:03.339Z,8.10
2019-04-21T00:44:18.044Z,7.53
2019-04-21T00:46:50.252Z,7.80
2019-04-21T00:49:18.136Z,7.67
2019-04-21T00:52:11.392Z,8.10
2019-04-21T00:54:27.789Z,7.57
2019-04-21T00:56:49.294Z,8.13
2019-04-21T00:59:13.844Z,7.80
2019-04-21T01:01:37.973Z,7.90
2019-04-21T01:04:09.991Z,8.13
2019-04-21T01:06:38.335Z,7.60
2019-04-21T01:09:02.780Z,7.87
2019-04-21T01:11:42.561Z,7.83
2019-04-21T01:13:59.610Z,7.93
2019-04-21T01:16:31.570Z,8.70
2019-04-21T01:18:51.920Z,8.20
2019-04-21T01:20:59.336Z,9.10
2019-04-21T01:23:27.543Z,7.63
2019-04-21T01:26:06.758Z,8.83
2019-04-21T01:28:39.969Z,8.37
2019-04-21T01:31:10.986Z,8.40
2019-04-21T01:33:38.562Z,8.73
2019-04-21T01:35:58.397Z,7.80
2019-04-21T01:38:38.129Z,7.47
2019-04-21T01:40:59.374Z,8.17
2019-04-21T01:43:23.361Z,7.83
2019-04-21T01:45:48.714Z,7.43
2019-04-21T01:48:18.444Z,7.93
2019-04-21T01:50:45.152Z,7.13
2019-04-21T01:53:24.930Z,7.90
2019-04-21T01:56:00.552Z,7.33
2019-04-21T01:58:25.508Z,7.07
2019-04-21T02:00:56.688Z,6.87
2019-04-21T02:03:46.676Z,7.40
2019-04-21T02:06:04.886Z,6.73
2019-04-21T02:08:27.461Z,7.40
2019-04-21T02:11:01.814Z,7.13
2019-04-21T02:15:56.358Z,7.13
2019-04-21T02:18:19.058Z,7.37
2019-04-21T02:20:38.267Z,7.20
2019-04-21T02:23:26.932Z,7.00
2019-04-21T02:25:38.532Z,6.20
2019-04-21T02:28:12.267Z,6.67
2019-04-21T02:31:07.440Z,7.30
2019-04-21T02:33:19.501Z,7.10
2019-04-21T02:36:00.562Z,6.77
2019-04-21T02:38:11.910Z,6.47
2019-04-21T02:43:36.764Z,7.33
2019-04-21T02:46:19.637Z,6.53
2019-04-21T02:48:39.387Z,6.37
2019-04-21T02:51:03.948Z,6.27
2019-04-21T02:56:03.895Z,5.70
2019-04-21T02:58:34.761Z,5.93
2019-04-21T03:01:23.864Z,5.73
2019-04-21T03:03:58.745Z,5.63
2019-04-21T03:06:50.332Z,5.23
2019-04-21T03:11:36.440Z,5.83
2019-04-21T03:14:18.226Z,5.63
2019-04-21T03:16:31.110Z,5.67
2019-04-21T03:19:04.916Z,5.80
2019-04-21T03:26:28.960Z,5.07
2019-04-21T03:31:36.026Z,4.67
2019-04-21T03:34:15.602Z,5.97
2019-04-21T03:38:47.388Z,5.50
2019-04-21T03:41:06.914Z,6.00
2019-04-21T03:43:40.127Z,5.97
2019-04-21T03:48:29.125Z,5.97
2019-04-21T03:50:52.477Z,5.87
2019-04-21T03:58:30.406Z,5.50
2019-04-21T04:01:00.543Z,5.80
2019-04-21T04:06:05.399Z,5.80
2019-04-21T04:08:44.692Z,5.90
2019-04-21T04:13:34.142Z,5.43
2019-04-21T04:16:04.590Z,5.83
2019-04-21T04:18:23.041Z,5.87
2019-04-21T04:23:09.931Z,7.13
2019-04-21T04:25:33.807Z,8.00
2019-04-21T04:28:14.285Z,6.80
2019-04-21T04:30:42.007Z,5.97
2019-04-21T04:32:56.642Z,6.10
2019-04-21T04:35:34.156Z,5.97
2019-04-21T04:38:12.824Z,6.73
2019-04-21T04:42:55.922Z,6.43
2019-04-21T04:45:28.357Z,6.20
2019-04-21T04:47:56.541Z,5.57
2019-04-21T04:50:15.649Z,5.37
2019-04-21T04:55:06.806Z,8.73
2019-04-21T04:57:49.669Z,10.60
2019-04-21T05:00:15.686Z,7.20
2019-04-21T05:02:33.787Z,6.83
2019-04-21T05:05:09.134Z,6.00
2019-04-21T05:09:55.590Z,5.83
2019-04-21T05:12:16.064Z,6.10
2019-04-21T05:14:47.742Z,5.70
2019-04-21T05:17:26.951Z,6.40
2019-04-21T05:19:45.071Z,5.73
2019-04-21T05:22:13.718Z,6.03
2019-04-21T05:24:25.537Z,5.73
2019-04-21T05:26:48.024Z,6.23
2019-04-21T05:29:16.006Z,6.20
2019-04-21T05:31:54.787Z,6.70
2019-04-21T05:34:27.712Z,6.63
2019-04-21T05:36:53.895Z,6.50
2019-04-21T05:39:21.731Z,5.90
2019-04-21T05:41:38.642Z,6.43
2019-04-21T05:44:26.664Z,6.60
2019-04-21T05:46:47.851Z,6.27
2019-04-21T05:49:10.969Z,6.17
2019-04-21T05:51:37.188Z,6.37
2019-04-21T05:54:16.212Z,7.13
2019-04-21T05:59:15.181Z,5.93
2019-04-21T06:01:47.017Z,5.47
2019-04-21T06:04:34.003Z,5.60
2019-04-21T06:06:43.557Z,5.17
2019-04-21T06:09:11.059Z,5.77
2019-04-21T06:11:34.306Z,5.37
2019-04-21T06:14:08.269Z,4.90
2019-04-21T06:16:37.459Z,5.60
2019-04-21T06:18:58.678Z,4.60
2019-04-21T06:21:22.253Z,5.07
2019-04-21T06:23:45.322Z,5.13
2019-04-21T06:26:46.877Z,4.23
2019-04-21T06:28:45.287Z,4.03
2019-04-21T06:33:40.361Z,3.90
2019-04-21T06:39:01.743Z,4.50
2019-04-21T06:41:21.428Z,4.63
2019-04-21T06:43:48.177Z,4.37
2019-04-21T06:46:18.211Z,4.10
2019-04-21T06:48:45.511Z,4.40
2019-04-21T06:51:09.355Z,4.20
2019-04-21T06:53:36.040Z,4.93
2019-04-21T06:56:00.039Z,4.73
2019-04-21T06:58:28.979Z,4.63
2019-04-21T07:00:47.699Z,4.27
2019-04-21T07:03:29.435Z,5.27
2019-04-21T07:05:52.145Z,4.50
2019-04-21T07:10:37.249Z,4.93
2019-04-21T07:13:03.553Z,4.73
2019-04-21T07:15:41.967Z,4.73
2019-04-21T07:18:04.512Z,5.03
2019-04-21T07:20:28.183Z,5.20
2019-04-21T07:22:59.506Z,5.20
2019-04-21T07:25:28.245Z,5.13
2019-04-21T07:27:52.769Z,5.43
2019-04-21T07:30:20.861Z,5.33
2019-04-21T07:32:58.032Z,4.67
2019-04-21T07:35:14.495Z,5.10
2019-04-21T07:37:41.069Z,4.70
2019-04-21T07:40:06.520Z,5.20
2019-04-21T07:42:35.887Z,5.13
2019-04-21T07:44:52.262Z,5.33
2019-04-21T07:47:49.300Z,4.47
2019-04-21T07:50:18.050Z,5.13
2019-04-21T07:53:00.949Z,4.60
2019-04-21T07:57:41.719Z,4.70
2019-04-21T08:00:36.764Z,4.70
2019-04-21T08:02:52.405Z,4.80
2019-04-21T08:07:52.038Z,4.97
2019-04-21T08:10:09.141Z,4.87
2019-04-21T08:12:28.999Z,4.57
2019-04-21T08:15:14.594Z,4.73
2019-04-21T08:17:33.358Z,4.20
2019-04-21T08:19:53.080Z,4.20
2019-04-21T08:22:35.144Z,4.13
2019-04-21T08:24:57.769Z,4.13
2019-04-21T08:27:25.819Z,4.63
2019-04-21T08:29:54.868Z,3.93
2019-04-21T08:32:17.541Z,4.00
2019-04-21T08:34:57.463Z,4.30
2019-04-21T08:37:12.188Z,4.15
2019-04-21T08:39:53.539Z,4.05
2019-04-21T08:42:08.481Z,4.40
2019-04-21T08:44:46.760Z,4.22
2019-04-21T08:47:07.689Z,4.03
2019-04-21T08:49:29.676Z,3.70
2019-04-21T08:52:08.233Z,4.30
2019-04-21T08:54:23.566Z,3.85
2019-04-21T08:57:08.096Z,4.57
2019-04-21T08:59:53.376Z,3.83
2019-04-21T09:02:26.060Z,3.87
2019-04-21T09:04:46.123Z,3.60
2019-04-21T09:07:23.916Z,3.80
2019-04-21T09:09:41.625Z,4.20
2019-04-21T09:12:07.145Z,4.03
2019-04-21T09:14:36.448Z,3.22
2019-04-21T09:16:57.760Z,4.00
2019-04-21T09:19:38.772Z,3.67
2019-04-21T09:22:11.015Z,3.97
2019-04-21T09:24:41.041Z,4.05
2019-04-21T09:26:51.417Z,3.55
2019-04-21T09:29:10.942Z,4.10
2019-04-21T09:31:33.827Z,4.07
2019-04-21T09:34:00.352Z,3.95
2019-04-21T09:36:25.471Z,3.65
2019-04-21T09:38:59.363Z,3.70
2019-04-21T09:41:22.019Z,3.85
2019-04-21T09:43:49.213Z,3.92
2019-04-21T09:46:14.215Z,4.10
2019-04-21T09:48:51.250Z,4.20
2019-04-21T09:51:08.659Z,4.50
2019-04-21T09:53:38.143Z,4.50
2019-04-21T09:56:06.604Z,4.60
2019-04-21T09:58:34.638Z,4.37
2019-04-21T10:01:05.103Z,4.03
2019-04-21T10:03:37.128Z,2.42
2019-04-21T10:05:56.355Z,3.45
2019-04-21T10:08:27.159Z,3.78
2019-04-21T10:10:52.892Z,4.05
2019-04-21T10:13:20.846Z,4.57
2019-04-21T10:15:48.420Z,2.05
2019-04-21T10:18:21.502Z,4.90
2019-04-21T10:20:47.231Z,4.68
2019-04-21T10:23:15.537Z,3.92
2019-04-21T10:25:42.762Z,4.90
2019-04-21T10:28:08.589Z,4.47
2019-04-21T10:30:36.445Z,4.70
2019-04-21T10:33:03.920Z,4.87
2019-04-21T10:35:31.075Z,5.45
2019-04-21T10:38:09.251Z,5.20
2019-04-21T10:40:25.399Z,4.75
2019-04-21T10:42:52.291Z,2.37
2019-04-21T10:45:18.999Z,4.03
2019-04-21T10:47:47.097Z,4.75
2019-04-21T10:50:13.194Z,4.22
2019-04-21T10:52:46.913Z,4.97
2019-04-21T10:55:35.582Z,4.75
2019-04-21T10:57:40.439Z,5.00
2019-04-21T11:00:12.051Z,5.25
2019-04-21T11:02:39.134Z,5.10
2019-04-21T11:05:05.270Z,5.22
2019-04-21T11:07:54.020Z,5.57
2019-04-21T11:10:05.407Z,5.90
2019-04-21T11:12:36.506Z,5.90
2019-04-21T11:15:03.272Z,5.65
2019-04-21T11:17:30.287Z,5.60
2019-04-21T11:19:57.287Z,5.55
2019-04-21T11:22:25.095Z,6.15
2019-04-21T11:24:51.386Z,5.75
2019-04-21T11:27:19.107Z,5.75
2019-04-21T11:29:45.585Z,5.30
2019-04-21T11:32:12.840Z,5.05
2019-04-21T11:34:40.734Z,5.45
2019-04-21T11:37:08.061Z,4.70
2019-04-21T11:39:48.786Z,5.60
2019-04-21T11:42:05.802Z,6.15
2019-04-21T11:44:33.031Z,5.25
2019-04-21T11:47:00.448Z,4.62
2019-04-21T11:49:30.246Z,4.72
2019-04-21T11:51:53.327Z,4.65
2019-04-21T11:54:20.436Z,3.83
2019-04-21T11:56:48.512Z,4.18
2019-04-21T11:59:15.522Z,4.15
2019-04-21T12:01:41.722Z,3.92
2019-04-21T12:04:09.738Z,3.55
2019-04-21T12:06:43.075Z,3.42
2019-04-21T12:09:04.825Z,4.35
2019-04-21T12:11:31.374Z,3.92
2019-04-21T12:13:58.404Z,4.90
2019-04-21T12:16:25.186Z,4.03
2019-04-21T12:18:52.428Z,4.12
2019-04-21T12:21:18.983Z,3.80
2019-04-21T12:23:45.883Z,3.92
2019-04-21T12:26:13.910Z,3.60
2019-04-21T12:28:41.704Z,4.35
2019-04-21T12:31:07.565Z,4.22
2019-04-21T12:33:50.305Z,3.83
2019-04-21T12:36:17.851Z,2.67
2019-04-21T12:38:52.166Z,3.80
2019-04-21T12:41:12.798Z,3.15
2019-04-21T12:43:38.971Z,3.47
2019-04-21T12:46:05.700Z,3.60
2019-04-21T12:48:33.753Z,3.12
2019-04-21T12:50:59.903Z,3.62
2019-04-21T12:53:27.708Z,2.58
2019-04-21T12:55:55.728Z,3.45
2019-04-21T12:58:21.535Z,3.35
2019-04-21T13:00:49.588Z,3.35
2019-04-21T13:03:17.432Z,3.20
2019-04-21T13:05:43.731Z,2.95
2019-04-21T13:08:11.471Z,3.60
2019-04-21T13:10:38.275Z,3.30
2019-04-21T13:13:05.926Z,3.45
2019-04-21T13:15:33.556Z,3.33
2019-04-21T13:18:00.496Z,3.42
2019-04-21T13:20:27.449Z,3.47
2019-04-21T13:22:54.337Z,3.62
2019-04-21T13:25:25.353Z,2.53
2019-04-21T13:27:52.365Z,3.40
2019-04-21T13:30:18.513Z,3.00
2019-04-21T13:32:46.969Z,2.75
2019-04-21T13:35:12.939Z,2.95
2019-04-21T13:37:41.406Z,2.60
2019-04-21T13:40:45.034Z,2.83
2019-04-21T13:42:57.305Z,3.10
2019-04-21T13:45:21.900Z,3.55
2019-04-21T13:47:48.581Z,3.25
2019-04-21T13:50:15.587Z,3.30
2019-04-21T13:52:42.763Z,3.35
2019-04-21T13:55:09.890Z,3.47
2019-04-21T13:57:38.891Z,3.30
2019-04-21T14:00:08.965Z,2.90
2019-04-21T14:02:36.564Z,3.50
2019-04-21T14:05:03.475Z,3.10
2019-04-21T14:07:30.559Z,3.40
2019-04-21T14:10:02.540Z,2.83
2019-04-21T14:12:25.374Z,3.00
2019-04-21T14:14:52.445Z,2.65
2019-04-21T14:17:19.179Z,3.50
2019-04-21T14:19:46.019Z,3.15
2019-04-21T14:22:13.911Z,3.50
2019-04-21T14:24:41.525Z,3.00
2019-04-21T14:27:08.080Z,3.55
2019-04-21T14:29:35.507Z,2.97
2019-04-21T14:32:02.184Z,2.20
2019-04-21T14:34:30.191Z,2.72
2019-04-21T14:37:02.531Z,3.20
2019-04-21T14:39:28.606Z,3.20
2019-04-21T14:41:56.090Z,2.55
2019-04-21T14:44:22.843Z,3.15
2019-04-21T14:46:55.331Z,2.87
2019-04-21T14:49:23.510Z,2.97
2019-04-21T14:52:03.052Z,2.90
2019-04-21T14:54:46.830Z,3.08
2019-04-21T14:57:13.600Z,2.83
2019-04-21T14:59:40.360Z,3.10
2019-04-21T15:02:07.713Z,3.42
2019-04-21T15:04:35.593Z,2.58
2019-04-21T15:07:03.341Z,2.45
2019-04-21T15:09:29.598Z,2.92
2019-04-21T15:11:58.116Z,3.25
2019-04-21T15:14:24.130Z,3.25
2019-04-21T15:16:51.214Z,3.08
2019-04-21T15:19:18.086Z,2.80
2019-04-21T15:21:45.135Z,2.85
2019-04-21T15:24:12.256Z,2.95
2019-04-21T15:26:40.118Z,3.00
2019-04-21T15:29:09.223Z,3.00
2019-04-21T15:31:39.844Z,3.15
2019-04-21T15:34:03.568Z,3.22
2019-04-21T15:36:32.154Z,3.35
2019-04-21T15:38:58.045Z,3.05
2019-04-21T15:41:25.005Z,3.00
2019-04-21T15:43:54.335Z,3.15
2019-04-21T15:46:20.941Z,3.10
2019-04-21T15:48:48.835Z,3.10
2019-04-21T15:51:15.850Z,2.92
2019-04-21T15:53:43.719Z,3.00
2019-04-21T15:56:15.209Z,3.05
2019-04-21T15:58:42.996Z,2.90
2019-04-21T16:01:25.176Z,3.08
2019-04-21T16:03:52.725Z,3.40
2019-04-21T16:06:19.492Z,3.28
2019-04-21T16:08:47.502Z,3.10
2019-04-21T16:11:13.709Z,3.35
2019-04-21T16:13:43.527Z,3.15
2019-04-21T16:16:10.532Z,3.35
2019-04-21T16:18:40.351Z,3.22
2019-04-21T16:21:08.278Z,3.90
2019-04-21T16:23:36.185Z,2.90
2019-04-21T16:26:04.392Z,3.40
2019-04-21T16:28:31.180Z,3.37
2019-04-21T16:30:58.432Z,3.25
2019-04-21T16:33:25.116Z,3.33
2019-04-21T16:35:51.711Z,2.97
2019-04-21T16:38:19.692Z,3.50
2019-04-21T16:40:55.605Z,3.12
2019-04-21T16:43:14.239Z,3.58
2019-04-21T16:45:41.132Z,3.58
2019-04-21T16:48:07.423Z,3.25
2019-04-21T16:50:34.414Z,3.22
2019-04-21T16:53:08.242Z,3.20
2019-04-21T16:56:06.908Z,3.58
2019-04-21T16:58:54.851Z,3.17
2019-04-21T17:01:26.216Z,3.25
2019-04-21T17:03:52.858Z,3.20
2019-04-21T17:06:19.903Z,3.37
2019-04-21T17:08:47.182Z,3.10
2019-04-21T17:11:18.781Z,3.10
2019-04-21T17:13:42.137Z,3.28
2019-04-21T17:16:38.613Z,3.25
2019-04-21T17:18:50.195Z,3.17
2019-04-21T17:21:05.010Z,3.37
2019-04-21T17:23:31.461Z,3.35
2019-04-21T17:25:57.611Z,3.35
2019-04-21T17:28:25.763Z,3.62
2019-04-21T17:30:52.701Z,3.12
2019-04-21T17:33:25.739Z,3.42
2019-04-21T17:35:46.893Z,3.35
2019-04-21T17:38:14.096Z,3.30
2019-04-21T17:40:42.013Z,3.42
2019-04-21T17:43:12.863Z,3.10
2019-04-21T17:45:35.210Z,3.53
2019-04-21T17:48:06.055Z,3.60
2019-04-21T17:50:33.580Z,3.42
2019-04-21T17:53:07.239Z,4.00
2019-04-21T17:55:35.122Z,3.90
2019-04-21T17:58:14.963Z,3.70
2019-04-21T18:01:05.529Z,4.05
2019-04-21T18:03:26.862Z,3.90
2019-04-21T18:05:39.409Z,4.53
2019-04-21T18:08:11.326Z,4.22
2019-04-21T18:10:30.669Z,4.05
2019-04-21T18:12:55.326Z,3.85
2019-04-21T18:15:29.026Z,4.20
2019-04-21T18:17:38.713Z,3.83
2019-04-21T18:20:06.061Z,3.90
2019-04-21T18:22:43.552Z,4.22
2019-04-21T18:25:10.443Z,4.05
2019-04-21T18:27:32.665Z,4.57
2019-04-21T18:30:02.563Z,4.32
2019-04-21T18:32:33.990Z,4.80
2019-04-21T18:35:05.555Z,4.85
2019-04-21T18:37:49.213Z,4.93
2019-04-21T18:40:20.439Z,5.20
2019-04-21T18:43:16.980Z,5.30
2019-04-21T18:45:57.304Z,5.18
2019-04-21T18:48:02.360Z,5.50
2019-04-21T18:50:20.286Z,4.68
2019-04-21T18:53:03.209Z,4.90
2019-04-21T18:55:27.875Z,5.22
2019-04-21T18:57:49.269Z,5.10
2019-04-21T19:00:17.953Z,5.37
2019-04-21T19:02:45.597Z,5.72
2019-04-21T19:05:15.567Z,5.90
2019-04-21T19:07:58.410Z,5.80
2019-04-21T19:13:25.625Z,5.90
2019-04-21T19:15:15.957Z,5.68
2019-04-21T19:20:25.577Z,5.90
2019-04-21T19:22:36.026Z,5.90
2019-04-21T19:25:08.481Z,6.10
2019-04-21T19:27:35.554Z,6.10
2019-04-21T19:30:10.875Z,6.70
2019-04-21T19:32:30.266Z,6.37
2019-04-21T19:34:40.594Z,6.47
2019-04-21T19:37:09.334Z,6.73
2019-04-21T19:39:42.754Z,6.28
2019-04-21T19:42:12.015Z,6.80
2019-04-21T19:44:41.760Z,6.90
2019-04-21T19:47:19.854Z,6.40
2019-04-21T19:49:45.246Z,6.97
2019-04-21T19:51:59.609Z,6.77
2019-04-21T19:54:26.144Z,7.93
2019-04-21T19:56:45.198Z,7.10
2019-04-21T19:59:23.848Z,7.37
2019-04-21T20:01:41.385Z,7.27
2019-04-21T20:04:08.487Z,7.23
2019-04-21T20:06:48.906Z,7.17
2019-04-21T20:09:17.737Z,7.30
2019-04-21T20:11:41.821Z,7.20
2019-04-21T20:14:42.924Z,7.10
2019-04-21T20:16:44.185Z,6.90
2019-04-21T20:18:57.331Z,6.53
2019-04-21T20:21:18.037Z,7.07
2019-04-21T20:23:47.493Z,7.17
2019-04-21T20:26:17.059Z,6.47
2019-04-21T20:28:49.218Z,6.43
2019-04-21T20:31:25.858Z,6.17
2019-04-21T20:34:11.287Z,6.93
2019-04-21T20:36:31.620Z,6.90
2019-04-21T20:38:44.505Z,6.83
2019-04-21T20:41:11.168Z,7.10
2019-04-21T20:43:43.976Z,7.43
2019-04-21T20:46:08.232Z,7.77
2019-04-21T20:48:34.424Z,8.37
2019-04-21T20:51:06.653Z,7.10
2019-04-21T20:53:32.721Z,7.40
2019-04-21T20:55:52.761Z,7.27
2019-04-21T20:58:23.919Z,6.43
2019-04-21T21:01:06.381Z,7.27
2019-04-21T21:03:24.609Z,6.20
2019-04-21T21:05:42.496Z,6.53
2019-04-21T21:08:19.702Z,6.93
2019-04-21T21:10:38.763Z,7.10
2019-04-21T21:15:36.405Z,6.40
2019-04-21T21:18:15.518Z,7.63
2019-04-21T21:20:30.807Z,6.37
2019-04-21T21:22:56.092Z,7.00
2019-04-21T21:25:38.358Z,7.70
2019-04-21T21:27:48.309Z,6.93
2019-04-21T21:30:23.217Z,6.70
2019-04-21T21:32:54.709Z,6.60
2019-04-21T21:35:17.854Z,7.50
2019-04-21T21:37:55.392Z,7.00
2019-04-21T21:40:21.849Z,6.83
2019-04-21T21:42:35.343Z,6.97
2019-04-21T21:45:04.881Z,7.23
2019-04-21T21:47:45.206Z,6.77
2019-04-21T21:50:00.762Z,6.83
2019-04-21T21:52:31.415Z,7.30
2019-04-21T21:54:47.571Z,7.67
2019-04-21T21:57:14.611Z,7.43
2019-04-21T21:59:42.169Z,7.60
2019-04-21T22:02:09.426Z,6.90
2019-04-21T22:04:37.907Z,6.87
2019-04-21T22:07:09.231Z,6.50
2019-04-21T22:09:32.370Z,7.10
2019-04-21T22:12:04.382Z,6.73
2019-04-21T22:14:36.439Z,6.70
2019-04-21T22:17:11.107Z,6.03
2019-04-21T22:19:46.826Z,6.70
2019-04-21T22:22:08.354Z,6.70
2019-04-21T22:24:31.516Z,7.57
2019-04-21T22:26:43.266Z,6.70
2019-04-21T22:29:11.731Z,6.47
2019-04-21T22:31:40.758Z,7.07
2019-04-21T22:34:07.546Z,7.07
2019-04-21T22:36:44.439Z,7.07
2019-04-21T22:39:15.730Z,7.03
2019-04-21T22:41:33.731Z,6.57
2019-04-21T22:43:54.229Z,6.57
2019-04-21T22:46:20.322Z,7.10
2019-04-21T22:48:53.118Z,7.20
2019-04-21T22:51:23.807Z,6.73
2019-04-21T22:53:46.860Z,7.40
2019-04-21T22:56:14.861Z,6.97
2019-04-21T22:58:39.314Z,7.40
2019-04-21T23:01:04.268Z,7.20
2019-04-21T23:03:32.196Z,7.10
2019-04-21T23:06:01.483Z,6.83
2019-04-21T23:08:31.778Z,6.53
2019-04-21T23:10:59.166Z,7.30
2019-04-21T23:13:23.380Z,7.10
2019-04-21T23:15:51.766Z,6.57
2019-04-21T23:18:30.788Z,7.10
2019-04-21T23:20:57.729Z,7.43
2019-04-21T23:23:31.234Z,7.20
2019-04-21T23:25:52.566Z,6.77
2019-04-21T23:28:16.116Z,6.30
2019-04-21T23:33:09.982Z,6.70
2019-04-21T23:35:37.805Z,6.33
2019-04-21T23:38:05.035Z,7.33
2019-04-21T23:40:29.635Z,6.57
2019-04-21T23:43:00.079Z,7.20
2019-04-21T23:45:30.533Z,6.77
2019-04-21T23:48:06.987Z,7.00
2019-04-21T23:50:50.453Z,6.33
2019-04-21T23:53:08.528Z,7.17
2019-04-21T23:55:37.004Z,6.50
2019-04-21T23:58:07.151Z,6.13
